Time;durP1;ratioP1;P1;durP2;ratioP2;P2;SDS_P1;SDS_P2;PMS_P1;PMS_P2;Temp;Humidity;BMP_temperature;BMP_pressure;BME280_temperature;BME280_humidity;BME280_pressure;Samples;Min_cycle;Max_cycle;Signal;HPM_P1;HPM_P2
2022/12/11 00:00:02;;;;;;;19.83;14.57;;;-0.40;99.90;;;;;;5014249;28;20475;-56
2022/12/11 00:02:29;;;;;;;18.47;14.17;;;-0.50;99.90;;;;;;5014298;28;20917;-57
2022/12/11 00:04:57;;;;;;;21.20;15.43;;;-0.40;99.90;;;;;;5014485;28;20943;-57
2022/12/11 00:07:26;;;;;;;21.47;16.23;;;-0.40;99.90;;;;;;5014286;28;20450;-57
2022/12/11 00:09:53;;;;;;;18.17;14.37;;;-0.30;99.90;;;;;;5013965;28;20471;-57
2022/12/11 00:12:21;;;;;;;19.13;14.77;;;-0.10;99.90;;;;;;5014098;28;20550;-58
2022/12/11 00:14:48;;;;;;;24.37;16.37;;;-0.10;99.90;;;;;;5014167;28;20454;-57
2022/12/11 00:17:16;;;;;;;20.20;14.30;;;-0.10;99.90;;;;;;5014057;28;20455;-56
2022/12/11 00:19:43;;;;;;;22.73;16.47;;;-0.10;99.90;;;;;;5014274;28;20989;-57
2022/12/11 00:22:11;;;;;;;22.63;16.50;;;0.00;99.90;;;;;;5013946;28;20486;-56
2022/12/11 00:24:40;;;;;;;23.10;15.00;;;0.00;99.90;;;;;;5014196;28;20450;-56
2022/12/11 00:27:08;;;;;;;20.80;15.93;;;0.00;99.90;;;;;;5013968;28;20462;-57
2022/12/11 00:29:35;;;;;;;21.80;14.77;;;-0.10;99.90;;;;;;5013775;28;20474;-58
2022/12/11 00:32:02;;;;;;;21.50;15.50;;;-0.10;99.90;;;;;;5013842;28;20538;-56
2022/12/11 00:34:30;;;;;;;23.07;14.97;;;-0.10;99.90;;;;;;5013897;28;20466;-57
2022/12/11 00:36:58;;;;;;;17.77;15.50;;;-0.10;99.90;;;;;;5013698;28;20462;-58
2022/12/11 00:39:26;;;;;;;20.10;14.33;;;0.00;99.90;;;;;;5013902;28;20506;-58
2022/12/11 00:41:55;;;;;;;20.33;15.43;;;0.10;99.90;;;;;;5013595;28;20483;-57
2022/12/11 00:44:23;;;;;;;17.33;14.30;;;-0.10;99.90;;;;;;5013643;28;20490;-57
2022/12/11 00:46:50;;;;;;;24.60;16.43;;;-0.10;99.90;;;;;;5013684;28;20447;-56
2022/12/11 00:49:18;;;;;;;18.93;14.60;;;0.10;99.90;;;;;;5013354;28;20489;-58
2022/12/11 00:51:45;;;;;;;18.67;15.13;;;0.20;99.90;;;;;;5013525;28;20816;-56
2022/12/11 00:54:12;;;;;;;17.17;14.57;;;0.30;99.90;;;;;;5013527;28;20443;-56
2022/12/11 00:56:40;;;;;;;18.63;13.60;;;0.40;99.90;;;;;;5013826;28;20785;-56
2022/12/11 00:59:09;;;;;;;21.50;15.10;;;0.50;99.90;;;;;;5013584;28;20467;-56
2022/12/11 01:01:36;;;;;;;22.93;15.27;;;0.40;99.90;;;;;;5013491;28;20450;-56
2022/12/11 01:04:04;;;;;;;20.23;14.10;;;0.20;99.90;;;;;;5013413;28;20493;-59
2022/12/11 01:06:31;;;;;;;22.27;16.70;;;0.20;99.90;;;;;;5013707;28;20458;-57
2022/12/11 01:11:44;;;;;;;21.37;16.03;;;0.30;99.90;;;;;;5013634;28;20499;-57
2022/12/11 01:14:13;;;;;;;18.67;14.30;;;0.20;99.90;;;;;;5013253;28;20446;-56
2022/12/11 01:16:41;;;;;;;18.10;14.97;;;0.20;99.90;;;;;;5013665;28;20473;-57
2022/12/11 01:19:08;;;;;;;19.77;14.93;;;0.30;99.90;;;;;;5013465;28;20470;-57
2022/12/11 01:21:36;;;;;;;17.00;14.50;;;0.30;99.90;;;;;;5013379;28;20960;-58
2022/12/11 01:24:07;;;;;;;19.47;14.17;;;0.20;99.90;;;;;;5013422;28;20483;-58
2022/12/11 01:26:34;;;;;;;17.47;13.77;;;0.20;99.90;;;;;;5013325;28;20467;-56
2022/12/11 01:29:02;;;;;;;19.33;14.73;;;0.20;99.90;;;;;;5013368;28;20446;-58
2022/12/11 01:31:31;;;;;;;16.63;13.30;;;0.30;99.90;;;;;;5013244;28;20941;-56
2022/12/11 01:33:58;;;;;;;20.93;16.43;;;0.40;99.90;;;;;;5013264;28;20497;-56
2022/12/11 01:36:26;;;;;;;18.83;14.73;;;0.40;99.90;;;;;;5013083;28;20443;-56
2022/12/11 01:38:54;;;;;;;20.27;14.03;;;0.30;99.90;;;;;;5012914;28;20451;-56
2022/12/11 01:41:21;;;;;;;18.43;14.43;;;0.30;99.90;;;;;;5012902;28;20475;-56
2022/12/11 01:44:04;;;;;;;20.57;15.90;;;0.30;99.90;;;;;;5012875;28;20483;-57
2022/12/11 01:46:34;;;;;;;21.03;14.67;;;0.40;99.90;;;;;;5012996;28;20518;-56
2022/12/11 01:49:05;;;;;;;20.17;16.00;;;0.40;99.90;;;;;;5013000;28;20431;-56
2022/12/11 01:51:36;;;;;;;18.50;13.90;;;0.40;99.90;;;;;;5013237;28;20427;-56
2022/12/11 01:54:08;;;;;;;21.23;15.60;;;0.50;99.90;;;;;;5013402;28;20480;-57
2022/12/11 01:56:38;;;;;;;21.23;15.07;;;0.60;99.90;;;;;;5013234;28;20442;-55
2022/12/11 01:59:07;;;;;;;18.90;13.87;;;0.60;99.90;;;;;;5012939;28;20554;-56
2022/12/11 02:01:41;;;;;;;14.40;12.90;;;0.70;99.90;;;;;;5013131;28;20800;-56
2022/12/11 02:04:09;;;;;;;21.50;16.07;;;0.60;99.90;;;;;;5013086;28;20884;-56
2022/12/11 02:06:39;;;;;;;20.90;15.17;;;0.60;99.90;;;;;;5013758;28;20478;-56
2022/12/11 02:09:10;;;;;;;18.93;13.10;;;0.50;99.90;;;;;;5016701;28;20478;-56
2022/12/11 02:11:47;;;;;;;23.77;14.93;;;0.60;99.90;;;;;;5016374;28;20507;-56
2022/12/11 02:14:27;;;;;;;19.47;14.63;;;0.70;99.90;;;;;;5016612;28;20419;-56
2022/12/11 02:17:00;;;;;;;17.60;13.77;;;0.60;99.90;;;;;;5016680;28;20431;-56
2022/12/11 02:19:49;;;;;;;19.47;15.07;;;0.60;99.90;;;;;;5016092;28;20516;-56
2022/12/11 02:22:27;;;;;;;16.87;14.63;;;0.60;99.90;;;;;;5016086;28;20435;-56
2022/12/11 02:25:09;;;;;;;16.43;11.93;;;0.70;99.90;;;;;;5016176;28;20615;-56
2022/12/11 02:27:44;;;;;;;20.37;14.33;;;0.70;99.90;;;;;;5016421;28;20427;-56
2022/12/11 02:30:15;;;;;;;14.17;11.60;;;0.80;99.90;;;;;;5016165;28;20466;-56
2022/12/11 02:32:47;;;;;;;17.17;12.77;;;0.70;99.90;;;;;;5015997;28;20452;-56
2022/12/11 02:35:20;;;;;;;21.93;13.13;;;0.70;99.90;;;;;;5016320;28;20470;-56
2022/12/11 02:37:51;;;;;;;18.70;14.30;;;0.80;99.90;;;;;;5016027;28;20490;-56
2022/12/11 02:40:25;;;;;;;16.10;11.77;;;0.70;99.90;;;;;;5015742;28;20522;-56
2022/12/11 02:42:54;;;;;;;23.13;13.10;;;0.80;99.90;;;;;;5015799;28;20972;-56
2022/12/11 02:45:24;;;;;;;17.63;12.07;;;0.70;99.90;;;;;;5015654;28;20461;-56
2022/12/11 02:47:52;;;;;;;16.47;13.10;;;0.80;99.90;;;;;;5015707;28;20455;-56
2022/12/11 02:50:23;;;;;;;19.40;14.43;;;0.70;99.90;;;;;;5015792;28;20471;-56
2022/12/11 02:52:54;;;;;;;15.70;11.60;;;0.70;99.90;;;;;;5015698;28;20428;-56
2022/12/11 02:55:23;;;;;;;15.30;11.57;;;0.50;99.90;;;;;;5015608;28;20471;-56
2022/12/11 02:57:55;;;;;;;15.07;11.83;;;0.50;99.90;;;;;;5015762;28;20458;-56
2022/12/11 03:00:24;;;;;;;18.13;12.33;;;0.50;99.90;;;;;;5015439;28;20478;-56
2022/12/11 03:02:52;;;;;;;13.67;12.10;;;0.50;99.90;;;;;;5015274;28;20849;-55
2022/12/11 03:05:19;;;;;;;16.90;12.87;;;0.40;99.90;;;;;;5015813;28;20463;-56
2022/12/11 03:07:48;;;;;;;14.17;11.10;;;0.30;99.90;;;;;;5015450;28;20451;-56
2022/12/11 03:10:17;;;;;;;19.40;13.87;;;0.20;99.90;;;;;;5015238;28;20478;-56
2022/12/11 03:12:48;;;;;;;16.37;13.00;;;0.30;99.90;;;;;;5015145;28;20489;-56
2022/12/11 03:15:18;;;;;;;18.77;12.97;;;0.30;99.90;;;;;;5015518;28;20428;-56
2022/12/11 03:17:58;;;;;;;20.07;13.30;;;0.30;99.90;;;;;;5015414;28;20428;-56
2022/12/11 03:20:33;;;;;;;17.47;13.40;;;0.20;99.90;;;;;;5015106;28;20886;-56
2022/12/11 03:23:10;;;;;;;17.73;12.60;;;0.20;99.90;;;;;;5014891;28;20477;-56
2022/12/11 03:25:46;;;;;;;20.27;12.90;;;0.20;99.90;;;;;;5015239;28;20442;-55
2022/12/11 03:28:24;;;;;;;18.03;12.80;;;0.20;99.90;;;;;;5015004;28;20442;-56
2022/12/11 03:30:54;;;;;;;19.17;13.33;;;0.20;99.90;;;;;;5014779;28;20471;-56
2022/12/11 03:33:26;;;;;;;15.80;12.53;;;0.10;99.90;;;;;;5015025;28;20458;-56
2022/12/11 03:35:57;;;;;;;19.40;14.40;;;0.20;99.90;;;;;;5015054;28;20890;-56
2022/12/11 03:38:31;;;;;;;20.33;14.53;;;0.20;99.90;;;;;;5015071;28;20447;-56
2022/12/11 03:41:02;;;;;;;19.47;13.07;;;0.20;99.90;;;;;;5014444;28;20487;-56
2022/12/11 03:43:30;;;;;;;21.13;13.73;;;0.20;99.90;;;;;;5014476;28;20494;-56
2022/12/11 03:46:00;;;;;;;17.23;11.67;;;0.20;99.90;;;;;;5014917;28;20453;-56
2022/12/11 03:48:35;;;;;;;17.73;14.63;;;0.10;99.90;;;;;;5014724;28;20451;-56
2022/12/11 03:51:05;;;;;;;21.03;15.60;;;0.10;99.90;;;;;;5014526;28;20498;-56
2022/12/11 03:53:34;;;;;;;18.53;15.10;;;0.10;99.90;;;;;;5014718;28;20431;-56
2022/12/11 03:56:04;;;;;;;18.60;15.20;;;0.00;99.90;;;;;;5014514;28;20450;-56
2022/12/11 03:58:32;;;;;;;17.53;13.40;;;0.10;99.90;;;;;;5014315;28;20804;-56
2022/12/11 04:00:59;;;;;;;20.23;13.87;;;0.10;99.90;;;;;;5014373;28;20503;-56
2022/12/11 04:03:28;;;;;;;15.47;12.93;;;0.20;99.90;;;;;;5013994;28;20482;-56
2022/12/11 04:05:56;;;;;;;17.67;12.93;;;0.10;99.90;;;;;;5014634;28;20768;-56
2022/12/11 04:08:23;;;;;;;20.00;12.90;;;0.10;99.90;;;;;;5014323;28;20455;-56
2022/12/11 04:11:33;;;;;;;17.00;13.00;;;0.10;99.90;;;;;;5014469;28;20489;-56
2022/12/11 04:13:41;;;;;;;16.20;12.87;;;0.10;99.90;;;;;;5014129;28;20435;-56
2022/12/11 04:16:08;;;;;;;15.70;12.17;;;0.10;99.90;;;;;;5014054;28;20490;-56
2022/12/11 04:24:15;;;;;;;20.17;12.97;;;0.20;99.90;;;;;;5013956;28;20462;-56
2022/12/11 04:26:43;;;;;;;14.33;11.70;;;0.10;99.90;;;;;;5014292;28;20449;-55
2022/12/11 04:29:10;;;;;;;14.07;11.30;;;0.10;99.90;;;;;;5013256;28;20472;-56
2022/12/11 04:31:38;;;;;;;16.03;11.30;;;0.10;99.90;;;;;;5013913;28;20458;-56
2022/12/11 04:34:07;;;;;;;16.23;11.10;;;0.10;99.90;;;;;;5013612;28;20817;-56
2022/12/11 04:36:34;;;;;;;14.60;10.47;;;0.10;99.90;;;;;;5013790;28;20458;-56
2022/12/11 04:39:02;;;;;;;16.50;10.20;;;0.20;99.90;;;;;;5013541;28;20455;-56
2022/12/11 04:41:29;;;;;;;14.90;10.77;;;0.20;99.90;;;;;;5013565;28;20487;-56
2022/12/11 04:43:56;;;;;;;25.90;12.73;;;0.10;99.90;;;;;;5013790;28;20494;-56
2022/12/11 04:46:25;;;;;;;13.07;11.53;;;0.20;99.90;;;;;;5013675;28;20443;-56
2022/12/11 04:48:53;;;;;;;12.37;9.97;;;0.20;99.90;;;;;;5013450;28;20451;-55
2022/12/11 04:51:22;;;;;;;15.03;11.20;;;0.30;99.90;;;;;;5013551;28;20466;-56
2022/12/11 04:53:49;;;;;;;13.47;11.03;;;0.10;99.90;;;;;;5013705;28;20454;-56
2022/12/11 04:56:17;;;;;;;15.10;11.00;;;0.20;99.90;;;;;;5013843;28;20454;-56
2022/12/11 04:58:45;;;;;;;15.80;11.43;;;0.20;99.90;;;;;;5013528;28;20937;-55
2022/12/11 05:01:15;;;;;;;13.10;10.57;;;0.20;99.90;;;;;;5013468;28;20942;-56
2022/12/11 05:03:43;;;;;;;16.77;11.83;;;0.30;99.90;;;;;;5013635;28;20505;-56
2022/12/11 05:06:11;;;;;;;16.50;11.63;;;0.30;99.90;;;;;;5013658;28;20815;-56
2022/12/11 05:08:42;;;;;;;16.93;13.90;;;0.20;99.90;;;;;;5013893;28;20458;-56
2022/12/11 05:11:12;;;;;;;15.27;11.83;;;0.20;99.90;;;;;;5013762;28;20462;-56
2022/12/11 05:13:40;;;;;;;17.00;10.30;;;0.20;99.90;;;;;;5013237;28;20462;-56
2022/12/11 05:16:08;;;;;;;15.17;12.03;;;0.30;99.90;;;;;;5013400;28;20454;-56
2022/12/11 05:18:36;;;;;;;15.00;11.80;;;0.40;99.90;;;;;;5013163;28;20956;-56
2022/12/11 05:21:06;;;;;;;14.53;11.20;;;0.40;99.90;;;;;;5013233;28;20475;-56
2022/12/11 05:23:34;;;;;;;16.73;12.07;;;0.30;99.90;;;;;;5013113;28;20486;-56
2022/12/11 05:26:06;;;;;;;15.70;12.00;;;0.20;99.90;;;;;;5013270;28;20462;-56
2022/12/11 05:28:35;;;;;;;15.27;11.07;;;0.20;99.90;;;;;;5013121;28;20435;-56
2022/12/11 05:31:05;;;;;;;13.97;11.03;;;0.20;99.90;;;;;;5013354;28;20482;-56
2022/12/11 05:33:33;;;;;;;18.37;12.00;;;0.20;99.90;;;;;;5013017;28;20834;-55
2022/12/11 05:36:00;;;;;;;15.63;11.60;;;0.20;99.90;;;;;;5013132;28;20917;-56
2022/12/11 05:38:28;;;;;;;15.93;11.37;;;0.20;99.90;;;;;;5013036;28;20451;-56
2022/12/11 05:40:59;;;;;;;13.20;10.73;;;0.30;99.90;;;;;;5013033;28;20487;-56
2022/12/11 05:43:30;;;;;;;14.80;11.90;;;0.30;99.90;;;;;;5016813;28;20450;-55
2022/12/11 05:46:04;;;;;;;14.33;11.50;;;0.20;99.90;;;;;;5017231;28;20461;-56
2022/12/11 05:48:32;;;;;;;18.93;11.40;;;0.20;99.90;;;;;;5017071;28;20431;-56
2022/12/11 05:51:00;;;;;;;15.83;10.00;;;0.30;99.90;;;;;;5017087;28;20510;-56
2022/12/11 05:53:28;;;;;;;16.73;11.60;;;0.20;99.90;;;;;;5016641;28;20453;-56
2022/12/11 05:56:01;;;;;;;14.00;11.30;;;0.20;99.90;;;;;;5017026;28;20457;-56
2022/12/11 05:58:30;;;;;;;17.87;12.43;;;0.10;99.90;;;;;;5016596;28;20435;-56
2022/12/11 06:00:57;;;;;;;14.47;10.87;;;0.10;99.90;;;;;;5016618;28;20471;-55
2022/12/11 06:03:25;;;;;;;16.30;11.63;;;0.00;99.90;;;;;;5016301;28;20455;-55
2022/12/11 06:05:53;;;;;;;18.77;13.43;;;0.00;99.90;;;;;;5016784;28;20458;-56
2022/12/11 06:08:20;;;;;;;17.70;13.30;;;0.00;99.90;;;;;;5016354;28;20447;-56
2022/12/11 06:10:48;;;;;;;21.17;14.83;;;-0.10;99.90;;;;;;5016426;28;21007;-56
2022/12/11 06:13:16;;;;;;;19.27;13.53;;;0.00;99.90;;;;;;5016317;28;20454;-56
2022/12/11 06:15:45;;;;;;;19.73;13.80;;;-0.10;99.90;;;;;;5016653;28;20447;-56
2022/12/11 06:18:12;;;;;;;17.80;15.27;;;-0.10;99.90;;;;;;5016489;28;20458;-56
2022/12/11 06:20:40;;;;;;;20.47;13.70;;;-0.10;99.90;;;;;;5016208;28;20475;-56
2022/12/11 06:23:07;;;;;;;22.70;17.00;;;-0.10;99.90;;;;;;5016160;28;20435;-56
2022/12/11 06:25:35;;;;;;;22.27;15.47;;;-0.30;99.90;;;;;;5016022;28;20509;-56
2022/12/11 06:28:02;;;;;;;19.33;14.20;;;-0.40;99.90;;;;;;5016009;28;20451;-56
2022/12/11 06:30:30;;;;;;;21.07;15.13;;;-0.50;99.90;;;;;;5016198;28;20483;-56
2022/12/11 06:33:00;;;;;;;19.83;15.80;;;-0.60;99.90;;;;;;5015887;28;20454;-55
2022/12/11 06:35:28;;;;;;;18.10;14.30;;;-0.50;99.90;;;;;;5016434;28;20455;-56
2022/12/11 06:37:55;;;;;;;19.10;16.27;;;-0.40;99.90;;;;;;5015705;28;20459;-55
2022/12/11 06:40:23;;;;;;;17.17;14.33;;;-0.40;99.90;;;;;;5015539;28;20493;-56
2022/12/11 06:42:50;;;;;;;21.80;15.97;;;-0.30;99.90;;;;;;5016034;28;20782;-56
2022/12/11 06:45:18;;;;;;;20.73;14.90;;;-0.30;99.90;;;;;;5015692;28;20487;-56
2022/12/11 06:47:45;;;;;;;18.33;12.87;;;-0.30;99.90;;;;;;5016037;28;20451;-56
2022/12/11 06:50:14;;;;;;;20.00;14.37;;;-0.40;99.90;;;;;;5015662;28;20471;-55
2022/12/11 06:52:41;;;;;;;15.30;13.70;;;-0.60;99.90;;;;;;5015320;28;20447;-55
2022/12/11 06:55:09;;;;;;;19.60;13.87;;;-0.50;99.90;;;;;;5015551;28;20443;-56
2022/12/11 06:57:37;;;;;;;19.07;15.47;;;-0.50;99.90;;;;;;5015841;28;20447;-56
2022/12/11 07:00:05;;;;;;;20.77;14.73;;;-0.50;99.90;;;;;;5015355;28;20471;-55
2022/12/11 07:02:33;;;;;;;20.70;14.17;;;-0.60;99.90;;;;;;5015454;28;20451;-55
2022/12/11 07:05:00;;;;;;;24.60;16.60;;;-0.70;99.90;;;;;;5015568;28;20491;-55
2022/12/11 07:07:29;;;;;;;20.20;14.50;;;-0.70;99.90;;;;;;5015338;28;20952;-57
2022/12/11 07:09:56;;;;;;;20.60;15.13;;;-0.70;99.90;;;;;;5015435;28;20467;-55
2022/12/11 07:12:24;;;;;;;19.80;14.63;;;-0.60;99.90;;;;;;5015273;28;20451;-56
2022/12/11 07:14:51;;;;;;;22.30;15.63;;;-0.60;99.90;;;;;;5015051;28;20458;-56
2022/12/11 07:17:19;;;;;;;18.07;13.43;;;-0.60;99.90;;;;;;5015489;28;20454;-56
2022/12/11 07:19:46;;;;;;;21.43;13.73;;;-0.60;99.90;;;;;;5015247;28;20502;-56
2022/12/11 07:22:14;;;;;;;20.27;14.90;;;-0.40;99.90;;;;;;5015073;28;20447;-57
2022/12/11 07:24:43;;;;;;;20.37;15.03;;;-0.30;99.90;;;;;;5015143;28;20490;-56
2022/12/11 07:27:10;;;;;;;17.90;14.63;;;-0.30;99.90;;;;;;5015305;28;20451;-56
2022/12/11 07:29:37;;;;;;;20.30;15.73;;;-0.20;99.90;;;;;;5014700;28;20482;-55
2022/12/11 07:32:06;;;;;;;22.20;14.87;;;-0.20;99.90;;;;;;5014934;28;20458;-56
2022/12/11 07:34:33;;;;;;;22.30;15.03;;;-0.20;99.90;;;;;;5015072;28;20461;-56
2022/12/11 07:37:00;;;;;;;18.57;13.27;;;-0.30;99.90;;;;;;5015279;28;20955;-56
2022/12/11 07:39:28;;;;;;;17.47;12.60;;;-0.20;99.90;;;;;;5015002;28;20574;-56
2022/12/11 07:41:57;;;;;;;17.67;12.60;;;-0.50;99.90;;;;;;5014566;28;20848;-56
2022/12/11 07:44:24;;;;;;;18.30;12.73;;;-0.40;99.90;;;;;;5014769;28;20493;-56
2022/12/11 07:46:52;;;;;;;17.13;12.80;;;-0.40;99.90;;;;;;5014824;28;20473;-56
2022/12/11 07:49:19;;;;;;;19.73;12.70;;;-0.50;99.90;;;;;;5014344;28;20475;-56
2022/12/11 07:51:47;;;;;;;16.40;12.17;;;-0.50;99.90;;;;;;5014519;28;20485;-55
2022/12/11 07:54:16;;;;;;;17.63;14.20;;;-0.30;99.90;;;;;;5014520;28;20450;-56
2022/12/11 07:56:44;;;;;;;21.50;13.83;;;-0.20;99.90;;;;;;5014441;28;20455;-56
2022/12/11 07:59:14;;;;;;;21.50;13.00;;;0.00;99.90;;;;;;5014203;28;20529;-56
2022/12/11 08:01:42;;;;;;;19.70;13.37;;;0.20;99.90;;;;;;5014329;28;20450;-56
2022/12/11 08:04:14;;;;;;;18.07;14.17;;;-0.10;99.90;;;;;;5013578;28;20465;-56
2022/12/11 08:06:42;;;;;;;15.20;11.97;;;-0.10;99.90;;;;;;5014594;28;20510;-56
2022/12/11 08:09:13;;;;;;;17.00;11.83;;;-0.10;99.90;;;;;;5014005;28;20503;-56
2022/12/11 08:11:40;;;;;;;18.00;13.50;;;-0.10;99.90;;;;;;5014195;28;20431;-56
2022/12/11 08:14:08;;;;;;;17.90;13.40;;;-0.20;99.90;;;;;;5014047;28;20506;-56
2022/12/11 08:16:39;;;;;;;18.77;11.57;;;-0.10;99.90;;;;;;5014423;28;20461;-56
2022/12/11 08:19:07;;;;;;;15.10;12.13;;;0.00;99.90;;;;;;5014254;28;20471;-56
2022/12/11 08:21:34;;;;;;;18.20;11.70;;;0.20;99.90;;;;;;5014271;28;20451;-56
2022/12/11 08:24:02;;;;;;;16.70;11.60;;;0.20;99.90;;;;;;5013989;28;20459;-56
2022/12/11 08:26:31;;;;;;;14.70;11.13;;;0.20;99.90;;;;;;5013907;28;20494;-56
2022/12/11 08:28:59;;;;;;;13.97;11.13;;;0.20;99.90;;;;;;5013711;28;20938;-56
2022/12/11 08:31:26;;;;;;;17.17;12.10;;;0.10;99.90;;;;;;5013929;28;20799;-56
2022/12/11 08:33:56;;;;;;;14.00;11.23;;;0.20;99.90;;;;;;5014020;28;20801;-56
2022/12/11 08:36:24;;;;;;;15.90;12.27;;;0.10;99.90;;;;;;5013712;28;20451;-56
2022/12/11 08:38:51;;;;;;;18.80;13.23;;;0.00;99.90;;;;;;5013605;28;20449;-56
2022/12/11 08:41:21;;;;;;;18.20;12.87;;;0.10;99.90;;;;;;5013576;28;20475;-56
2022/12/11 08:43:51;;;;;;;15.13;13.40;;;0.30;99.90;;;;;;5013822;28;20451;-58
2022/12/11 08:46:19;;;;;;;18.67;13.37;;;0.40;99.90;;;;;;5013836;28;20890;-55
2022/12/11 08:48:46;;;;;;;18.57;13.37;;;0.20;99.90;;;;;;5013721;28;20474;-55
2022/12/11 08:51:17;;;;;;;19.00;13.20;;;0.20;99.90;;;;;;5013581;28;20451;-55
2022/12/11 08:53:45;;;;;;;24.00;14.93;;;0.20;99.90;;;;;;5013437;28;20435;-55
2022/12/11 08:56:14;;;;;;;17.73;12.37;;;0.30;99.90;;;;;;5013887;28;20474;-56
2022/12/11 08:58:42;;;;;;;14.87;12.63;;;0.20;99.90;;;;;;5013660;28;20534;-55
2022/12/11 09:01:11;;;;;;;19.40;13.17;;;0.20;99.90;;;;;;5013837;28;20447;-55
2022/12/11 09:03:40;;;;;;;14.90;12.23;;;0.30;99.90;;;;;;5013567;28;20455;-55
2022/12/11 09:06:09;;;;;;;19.00;13.30;;;0.30;99.90;;;;;;5013298;28;20467;-55
2022/12/11 09:08:39;;;;;;;19.00;13.40;;;0.20;99.90;;;;;;5013545;28;20458;-55
2022/12/11 09:11:09;;;;;;;18.33;13.97;;;0.30;99.90;;;;;;5013645;28;20467;-55
2022/12/11 09:13:37;;;;;;;16.50;13.37;;;0.40;99.90;;;;;;5013157;28;20946;-56
2022/12/11 09:16:05;;;;;;;20.03;14.17;;;0.50;99.90;;;;;;5014906;28;20446;-56
2022/12/11 09:18:32;;;;;;;19.50;14.83;;;0.60;99.90;;;;;;5017503;28;20478;-56
2022/12/11 09:21:01;;;;;;;18.27;13.83;;;0.60;99.90;;;;;;5017587;28;20471;-56
2022/12/11 09:23:28;;;;;;;18.67;15.13;;;0.60;99.90;;;;;;5017415;28;20451;-56
2022/12/11 09:25:57;;;;;;;17.57;12.60;;;0.50;99.90;;;;;;5017188;28;20482;-56
2022/12/11 09:28:24;;;;;;;19.67;13.70;;;0.50;99.90;;;;;;5017231;28;20455;-55
2022/12/11 09:30:52;;;;;;;20.13;14.20;;;0.60;99.90;;;;;;5017425;28;20794;-55
2022/12/11 09:33:20;;;;;;;20.80;15.73;;;0.70;99.90;;;;;;5016907;28;20820;-56
2022/12/11 09:35:56;;;;;;;15.97;13.43;;;0.80;99.90;;;;;;5017103;28;20431;-56
2022/12/11 09:38:24;;;;;;;21.13;15.07;;;0.90;99.90;;;;;;5016811;28;20438;-55
2022/12/11 09:40:51;;;;;;;14.37;12.87;;;0.80;99.90;;;;;;5016672;28;20489;-55
2022/12/11 09:43:37;;;;;;;22.37;14.23;;;0.90;99.90;;;;;;5017139;28;20449;-55
2022/12/11 09:46:09;;;;;;;19.67;14.53;;;1.10;99.90;;;;;;5016853;28;20473;-55
2022/12/11 09:48:38;;;;;;;21.87;15.10;;;1.20;99.90;;;;;;5017260;28;20438;-55
2022/12/11 09:51:17;;;;;;;19.77;14.20;;;1.10;99.90;;;;;;5016710;28;20470;-56
2022/12/11 09:53:45;;;;;;;19.63;13.90;;;1.20;99.90;;;;;;5017069;28;20443;-55
2022/12/11 09:56:20;;;;;;;20.60;14.47;;;1.20;99.90;;;;;;5016476;28;20453;-56
2022/12/11 09:59:02;;;;;;;19.13;12.93;;;1.20;99.90;;;;;;5016564;28;20900;-55
2022/12/11 10:01:36;;;;;;;21.23;14.03;;;1.20;99.90;;;;;;5016906;28;20446;-56
2022/12/11 10:04:32;;;;;;;16.50;12.77;;;1.40;99.90;;;;;;5016448;28;20490;-56
2022/12/11 10:07:10;;;;;;;18.33;13.30;;;1.40;99.90;;;;;;5016134;28;20972;-55
2022/12/11 10:09:47;;;;;;;16.93;11.47;;;1.60;99.90;;;;;;5016390;28;20529;-56
2022/12/11 10:12:38;;;;;;;18.60;13.50;;;1.40;99.90;;;;;;5016254;28;20918;-56
2022/12/11 10:15:19;;;;;;;16.83;11.83;;;1.60;99.90;;;;;;5016647;28;20518;-56
2022/12/11 10:17:48;;;;;;;16.40;10.80;;;1.70;99.90;;;;;;5016316;28;20839;-55
2022/12/11 10:20:24;;;;;;;14.00;11.40;;;1.80;99.90;;;;;;5016320;28;20462;-55
2022/12/11 10:22:53;;;;;;;17.50;12.33;;;1.90;99.90;;;;;;5016150;28;20427;-56
2022/12/11 10:25:24;;;;;;;18.43;12.30;;;1.80;99.90;;;;;;5016040;28;20486;-56
2022/12/11 10:27:52;;;;;;;17.23;11.50;;;1.70;99.90;;;;;;5015304;28;20846;-55
2022/12/11 10:30:23;;;;;;;17.07;12.33;;;1.90;99.90;;;;;;5015933;28;20471;-56
2022/12/11 10:33:00;;;;;;;16.10;11.57;;;1.90;99.90;;;;;;5015922;28;20439;-55
2022/12/11 10:35:33;;;;;;;20.57;14.23;;;1.70;99.90;;;;;;5016454;28;20459;-55
2022/12/11 10:38:12;;;;;;;19.03;12.93;;;1.70;99.90;;;;;;5015753;28;20435;-56
2022/12/11 10:40:43;;;;;;;19.40;12.67;;;1.90;99.90;;;;;;5015562;28;20486;-55
2022/12/11 10:43:11;;;;;;;15.43;12.60;;;1.90;99.90;;;;;;5015833;28;20507;-55
2022/12/11 10:45:40;;;;;;;21.60;16.77;;;2.10;99.90;;;;;;5016016;28;20490;-56
2022/12/11 10:48:12;;;;;;;18.40;14.00;;;2.10;99.90;;;;;;5015656;28;20447;-55
2022/12/11 10:50:56;;;;;;;21.30;15.30;;;2.10;99.90;;;;;;5015488;28;20499;-55
2022/12/11 10:53:24;;;;;;;20.83;14.43;;;2.00;99.90;;;;;;5015626;28;20427;-55
2022/12/11 10:55:52;;;;;;;20.23;14.70;;;2.00;99.90;;;;;;5015398;28;20977;-55
2022/12/11 10:58:22;;;;;;;20.70;15.30;;;1.90;99.90;;;;;;5015504;28;20486;-55
2022/12/11 11:01:04;;;;;;;23.20;15.90;;;1.80;99.90;;;;;;5015563;28;20475;-55
2022/12/11 11:03:33;;;;;;;21.27;16.57;;;1.60;99.90;;;;;;5015383;28;20971;-55
2022/12/11 11:06:06;;;;;;;21.67;16.50;;;1.60;99.90;;;;;;5015428;28;20471;-56
2022/12/11 11:08:41;;;;;;;19.03;15.97;;;1.70;99.90;;;;;;5015152;28;20531;-55
2022/12/11 11:11:21;;;;;;;23.47;15.93;;;1.70;99.90;;;;;;5015606;28;20489;-55
2022/12/11 11:13:49;;;;;;;21.93;15.10;;;1.70;99.90;;;;;;5015503;28;20439;-56
2022/12/11 11:16:20;;;;;;;20.60;16.57;;;1.80;99.90;;;;;;5015324;28;20817;-56
2022/12/11 11:18:53;;;;;;;22.53;15.80;;;1.80;99.90;;;;;;5015131;28;20432;-56
2022/12/11 11:21:22;;;;;;;23.33;16.67;;;1.80;99.90;;;;;;5015288;28;20428;-56
2022/12/11 11:23:50;;;;;;;23.50;16.53;;;1.70;99.90;;;;;;5015016;28;20862;-56
2022/12/11 11:26:19;;;;;;;21.77;17.00;;;1.80;99.90;;;;;;5014949;28;20483;-56
2022/12/11 11:28:49;;;;;;;21.50;15.90;;;1.90;99.90;;;;;;5014884;28;20930;-56
2022/12/11 11:31:19;;;;;;;20.93;15.40;;;1.90;99.90;;;;;;5015392;28;20486;-56
2022/12/11 11:33:55;;;;;;;23.20;16.00;;;1.80;99.90;;;;;;5014929;28;20458;-56
2022/12/11 11:36:24;;;;;;;22.87;14.23;;;1.90;99.90;;;;;;5014648;28;20522;-56
2022/12/11 11:39:16;;;;;;;21.70;16.50;;;2.10;99.90;;;;;;5013958;28;20451;-56
2022/12/11 11:41:50;;;;;;;23.80;16.93;;;2.00;99.90;;;;;;5014617;28;20489;-56
2022/12/11 11:44:25;;;;;;;20.77;15.40;;;2.10;99.90;;;;;;5014627;28;20489;-56
2022/12/11 11:46:59;;;;;;;22.10;15.13;;;2.10;99.90;;;;;;5014611;28;20474;-56
2022/12/11 11:49:40;;;;;;;19.67;16.07;;;2.10;99.90;;;;;;5014473;28;20520;-56
2022/12/11 11:52:15;;;;;;;26.13;15.83;;;2.10;99.90;;;;;;5014468;28;20921;-56
2022/12/11 11:54:50;;;;;;;18.13;15.27;;;2.30;99.90;;;;;;5014504;28;20925;-56
2022/12/11 11:57:28;;;;;;;21.60;16.07;;;2.30;99.90;;;;;;5014686;28;20929;-56
2022/12/11 11:59:58;;;;;;;27.70;15.67;;;2.20;99.90;;;;;;5014625;28;20466;-56
2022/12/11 12:02:28;;;;;;;21.40;15.93;;;2.30;99.90;;;;;;5014055;28;20812;-54
2022/12/11 12:04:55;;;;;;;16.00;12.53;;;2.20;99.90;;;;;;5011407;28;20467;-57
2022/12/11 12:07:35;;;;;;;19.60;14.17;;;2.30;99.90;;;;;;5009116;28;21028;-50
2022/12/11 12:10:13;;;;;;;18.73;14.03;;;2.40;99.90;;;;;;5010776;28;20463;-55
2022/12/11 12:12:52;;;;;;;18.13;13.43;;;2.20;99.90;;;;;;5013176;28;20443;-53
2022/12/11 12:15:30;;;;;;;24.60;16.90;;;2.20;99.90;;;;;;5013763;28;20913;-55
2022/12/11 12:18:06;;;;;;;22.30;16.60;;;1.90;99.90;;;;;;5014214;28;20584;-50
2022/12/11 12:20:39;;;;;;;18.70;14.73;;;1.70;99.90;;;;;;5019607;28;20476;-56
2022/12/11 12:23:31;;;;;;;17.60;14.20;;;1.60;99.90;;;;;;5033318;28;20431;-53
2022/12/11 12:26:09;;;;;;;19.00;14.07;;;1.40;99.90;;;;;;5033161;28;20463;-52
2022/12/11 12:28:45;;;;;;;22.00;16.50;;;1.40;99.90;;;;;;5033921;28;20436;-54
2022/12/11 12:31:33;;;;;;;21.63;14.23;;;1.60;99.90;;;;;;5027201;28;20430;-56
2022/12/11 12:34:10;;;;;;;21.13;16.90;;;1.80;99.90;;;;;;5025504;28;20478;-49
2022/12/11 12:36:46;;;;;;;24.90;15.40;;;1.80;99.90;;;;;;5030708;28;20426;-52
2022/12/11 12:39:20;;;;;;;22.83;17.93;;;1.80;99.90;;;;;;5012659;28;20534;-54
2022/12/11 12:41:55;;;;;;;22.03;16.60;;;1.90;99.90;;;;;;5013129;28;20474;-55
2022/12/11 12:44:24;;;;;;;23.33;16.67;;;1.90;99.90;;;;;;5012905;28;20435;-52
2022/12/11 12:47:00;;;;;;;21.40;15.23;;;2.00;99.90;;;;;;5009774;28;20486;-51
2022/12/11 12:49:40;;;;;;;24.70;16.83;;;2.10;99.90;;;;;;5012777;28;20550;-56
2022/12/11 12:52:12;;;;;;;22.43;17.43;;;2.00;99.90;;;;;;5013047;28;20450;-53
2022/12/11 12:54:41;;;;;;;21.77;16.27;;;2.10;99.90;;;;;;4995863;28;20438;-56
2022/12/11 12:57:08;;;;;;;23.90;16.77;;;1.90;99.90;;;;;;5013368;28;20876;-55
2022/12/11 12:59:36;;;;;;;25.20;18.13;;;1.80;99.90;;;;;;5011273;28;20459;-55